createdAt,value
2019-04-06T00:07:11.832Z,95074.64
2019-04-06T00:12:14.489Z,95085.20
2019-04-06T00:14:42.931Z,95089.20
2019-04-06T00:17:11.316Z,95090.24
2019-04-06T00:19:39.719Z,95089.84
2019-04-06T00:24:42.415Z,95088.52
2019-04-06T00:27:30.233Z,95076.73
2019-04-06T00:29:58.630Z,95081.72
2019-04-06T00:32:46.262Z,95091.66
2019-04-06T00:35:33.996Z,95095.61
2019-04-06T00:38:02.462Z,95094.45
2019-04-06T00:40:30.885Z,95092.13
2019-04-06T00:42:59.357Z,95080.78
2019-04-06T00:48:21.325Z,95088.27
2019-04-06T00:50:49.744Z,95082.42
2019-04-06T00:53:18.151Z,95085.50
2019-04-06T00:55:55.046Z,95085.89
2019-04-06T00:58:16.719Z,95081.53
2019-04-06T01:00:57.327Z,95087.02
2019-04-06T01:05:59.713Z,95088.75
2019-04-06T01:08:28.123Z,95091.52
2019-04-06T01:13:30.784Z,95090.20
2019-04-06T01:18:53.487Z,95091.47
2019-04-06T01:21:41.013Z,95087.30
2019-04-06T01:26:43.584Z,95090.28
2019-04-06T01:31:46.021Z,95087.73
2019-04-06T01:34:14.429Z,95085.78
2019-04-06T01:36:42.893Z,95083.88
2019-04-06T01:39:11.281Z,95084.37
2019-04-06T01:41:59.108Z,95081.75
2019-04-06T01:44:27.505Z,95084.39
2019-04-06T01:46:55.897Z,95085.73
2019-04-06T01:51:58.768Z,95081.23
2019-04-06T01:54:27.219Z,95080.33
2019-04-06T01:56:57.734Z,95081.20
2019-04-06T01:59:26.179Z,95080.73
2019-04-06T02:07:44.376Z,95081.54
2019-04-06T02:10:52.800Z,95081.88
2019-04-06T02:13:21.211Z,95079.34
2019-04-06T02:15:49.619Z,95080.48
2019-04-06T02:20:51.981Z,95080.56
2019-04-06T02:23:20.380Z,95082.38
2019-04-06T02:25:48.844Z,95083.09
2019-04-06T02:28:17.242Z,95084.59
2019-04-06T02:33:53.859Z,95081.64
2019-04-06T02:36:41.382Z,95082.97
2019-04-06T02:39:29.027Z,95081.55
2019-04-06T02:42:37.409Z,95077.92
2019-04-06T02:45:45.731Z,95081.97
2019-04-06T02:48:14.114Z,95076.55
2019-04-06T02:50:42.515Z,95081.80
2019-04-06T02:55:44.637Z,95077.72
2019-04-06T03:01:06.654Z,95072.67
2019-04-06T03:03:47.218Z,95068.25
2019-04-06T03:06:34.946Z,95067.13
2019-04-06T03:11:56.546Z,95066.03
2019-04-06T03:16:58.768Z,95062.33
2019-04-06T03:19:27.293Z,95070.56
2019-04-06T03:21:55.652Z,95065.20
2019-04-06T03:24:24.060Z,95063.73
2019-04-06T03:27:00.982Z,95060.80
2019-04-06T03:29:22.706Z,95059.14
2019-04-06T03:32:31.133Z,95054.56
2019-04-06T03:35:20.470Z,95052.80
2019-04-06T03:37:48.916Z,95048.86
2019-04-06T03:40:36.621Z,95046.70
2019-04-06T03:45:39.346Z,95048.66
2019-04-06T03:48:07.771Z,95051.12
2019-04-06T03:50:36.177Z,95052.41
2019-04-06T03:53:23.936Z,95057.30
2019-04-06T03:55:52.363Z,95061.70
2019-04-06T03:58:20.757Z,95060.06
2019-04-06T04:03:23.182Z,95058.08
2019-04-06T04:06:03.416Z,95064.93
2019-04-06T04:08:31.998Z,95069.85
2019-04-06T04:11:01.961Z,95071.00
2019-04-06T04:21:33.215Z,95061.63
2019-04-06T04:24:01.904Z,95066.70
2019-04-06T04:29:39.984Z,95076.08
2019-04-06T04:32:10.032Z,95074.29
2019-04-06T04:34:38.563Z,95074.17
2019-04-06T04:39:43.015Z,95079.31
2019-04-06T04:42:11.459Z,95077.03
2019-04-06T04:44:39.854Z,95077.22
2019-04-06T04:47:08.382Z,95077.70
2019-04-06T04:49:38.438Z,95079.20
2019-04-06T04:52:06.836Z,95083.28
2019-04-06T04:54:35.247Z,95079.66
2019-04-06T04:57:03.773Z,95083.91
2019-04-06T04:59:32.157Z,95089.16
2019-04-06T05:02:00.574Z,95089.64
2019-04-06T05:04:29.001Z,95084.89
2019-04-06T05:07:09.368Z,95088.31
2019-04-06T05:12:11.393Z,95099.44
2019-04-06T05:15:19.941Z,95099.11
2019-04-06T05:17:48.287Z,95095.32
2019-04-06T05:20:16.685Z,95098.27
2019-04-06T05:22:45.121Z,95098.41
2019-04-06T05:25:13.673Z,95098.77
2019-04-06T05:27:51.233Z,95104.86
2019-04-06T05:30:52.178Z,95107.66
2019-04-06T05:33:20.580Z,95112.24
2019-04-06T05:35:49.019Z,95119.47
2019-04-06T05:40:51.084Z,95113.09
2019-04-06T05:43:19.500Z,95125.86
2019-04-06T05:45:48.021Z,95119.77
2019-04-06T05:48:16.590Z,95130.58
2019-04-06T05:50:46.545Z,95133.16
2019-04-06T05:53:14.976Z,95130.20
2019-04-06T05:55:43.404Z,95135.25
2019-04-06T05:58:11.888Z,95139.69
2019-04-06T06:03:15.466Z,95140.47
2019-04-06T06:08:18.597Z,95147.95
2019-04-06T06:13:21.455Z,95144.08
2019-04-06T06:15:51.453Z,95146.34
2019-04-06T06:18:26.471Z,95138.94
2019-04-06T06:20:50.008Z,95143.19
2019-04-06T06:23:18.444Z,95143.80
2019-04-06T06:25:46.930Z,95150.48
2019-04-06T06:28:15.637Z,95147.16
2019-04-06T06:30:45.479Z,95148.64
2019-04-06T06:33:13.889Z,95145.13
2019-04-06T06:35:42.294Z,95146.38
2019-04-06T06:40:45.174Z,95146.61
2019-04-06T06:43:13.646Z,95150.02
2019-04-06T06:45:41.995Z,95146.11
2019-04-06T06:48:10.463Z,95143.01
2019-04-06T06:50:38.907Z,95145.17
2019-04-06T06:53:07.311Z,95143.85
2019-04-06T06:55:35.701Z,95147.63
2019-04-06T06:58:25.632Z,95146.61
2019-04-06T07:00:53.441Z,95150.31
2019-04-06T07:03:21.893Z,95155.00
2019-04-06T07:08:24.077Z,95146.16
2019-04-06T07:11:05.017Z,95148.38
2019-04-06T07:13:33.426Z,95148.84
2019-04-06T07:16:02.146Z,95152.53
2019-04-06T07:21:25.586Z,95145.38
2019-04-06T07:23:54.037Z,95145.80
2019-04-06T07:26:22.441Z,95145.87
2019-04-06T07:28:50.851Z,95151.09
2019-04-06T07:34:04.823Z,95152.55
2019-04-06T07:38:57.722Z,95144.71
2019-04-06T07:43:59.747Z,95137.95
2019-04-06T07:46:28.209Z,95140.14
2019-04-06T07:49:07.460Z,95138.73
2019-04-06T07:51:46.168Z,95136.85
2019-04-06T07:54:14.763Z,95133.61
2019-04-06T07:56:44.706Z,95135.04
2019-04-06T07:59:13.137Z,95134.03
2019-04-06T08:01:41.532Z,95132.03
2019-04-06T08:04:09.937Z,95128.08
2019-04-06T08:09:12.064Z,95125.70
2019-04-06T08:11:40.463Z,95124.29
2019-04-06T08:14:08.895Z,95121.41
2019-04-06T08:16:37.323Z,95116.91
2019-04-06T08:19:05.726Z,95122.38
2019-04-06T08:24:10.452Z,95120.91
2019-04-06T08:26:39.088Z,95110.27
2019-04-06T08:29:09.052Z,95102.16
2019-04-06T08:31:37.467Z,95104.85
2019-04-06T08:34:06.045Z,95107.45
2019-04-06T08:36:36.016Z,95110.94
2019-04-06T08:39:44.658Z,95104.73
2019-04-06T08:42:13.122Z,95106.50
2019-04-06T08:44:44.605Z,95106.59
2019-04-06T08:49:48.564Z,95090.31
2019-04-06T08:54:51.661Z,95093.88
2019-04-06T08:59:55.642Z,95086.17
2019-04-06T09:02:24.242Z,95089.44
2019-04-06T09:05:13.622Z,95087.47
2019-04-06T09:07:43.536Z,95081.93
2019-04-06T09:13:20.104Z,95074.32
2019-04-06T09:15:48.506Z,95072.69
2019-04-06T09:18:16.953Z,95068.20
2019-04-06T09:23:39.630Z,95055.67
2019-04-06T09:26:08.033Z,95060.08
2019-04-06T09:28:36.443Z,95053.95
2019-04-06T09:31:44.871Z,95048.46
2019-04-06T09:34:13.387Z,95045.34
2019-04-06T09:36:41.886Z,95046.11
2019-04-06T09:39:10.315Z,95037.31
2019-04-06T09:41:38.682Z,95033.28
2019-04-06T09:44:26.391Z,95027.14
2019-04-06T09:47:13.929Z,95025.88
2019-04-06T09:50:20.815Z,95029.59
2019-04-06T09:55:57.465Z,95017.75
2019-04-06T10:01:54.905Z,95014.61
2019-04-06T10:04:42.470Z,95012.08
2019-04-06T10:07:30.025Z,95008.53
2019-04-06T10:10:17.568Z,95005.02
2019-04-06T10:13:05.272Z,95000.99
2019-04-06T10:15:52.831Z,95004.88
2019-04-06T10:18:40.470Z,95009.14
2019-04-06T10:21:28.001Z,95010.77
2019-04-06T10:24:15.571Z,95001.31
2019-04-06T10:27:05.839Z,95007.89
2019-04-06T10:29:53.430Z,94997.54
2019-04-06T10:35:49.389Z,94997.98
2019-04-06T10:38:37.152Z,94988.23
2019-04-06T10:44:00.319Z,94975.94
2019-04-06T10:46:47.854Z,94973.13
2019-04-06T10:49:35.491Z,94965.19
2019-04-06T10:55:50.459Z,94955.61
2019-04-06T10:58:38.009Z,94948.30
2019-04-06T11:01:25.641Z,94953.34
2019-04-06T11:04:13.170Z,94942.80
2019-04-06T11:07:00.806Z,94943.70
2019-04-06T11:12:37.424Z,94930.55
2019-04-06T11:15:45.754Z,94925.97
2019-04-06T11:18:33.386Z,94921.01
2019-04-06T11:24:10.192Z,94910.73
2019-04-06T11:26:57.965Z,94907.73
2019-04-06T11:29:45.546Z,94897.08
2019-04-06T11:32:33.094Z,94897.40
2019-04-06T11:35:20.700Z,94900.09
2019-04-06T11:38:08.234Z,94899.19
2019-04-06T11:40:55.853Z,94897.20
2019-04-06T11:46:32.490Z,94891.99
2019-04-06T11:54:44.755Z,94888.20
2019-04-06T11:57:32.281Z,94880.47
2019-04-06T12:00:26.401Z,94879.69
2019-04-06T12:05:58.444Z,94871.19
2019-04-06T12:08:45.969Z,94880.01
2019-04-06T12:11:34.145Z,94869.30
2019-04-06T12:17:29.755Z,94866.76
2019-04-06T12:20:17.311Z,94869.72
2019-04-06T12:23:04.952Z,94875.09
2019-04-06T12:25:52.539Z,94871.13
2019-04-06T12:28:40.119Z,94867.75
2019-04-06T12:31:27.753Z,94869.15
2019-04-06T12:34:15.449Z,94860.61
2019-04-06T12:37:02.981Z,94863.84
2019-04-06T12:42:25.990Z,94855.39
2019-04-06T12:45:13.832Z,94856.48
2019-04-06T12:48:01.778Z,94853.80
2019-04-06T12:50:49.573Z,94855.94
2019-04-06T12:53:37.476Z,94851.66
2019-04-06T12:56:25.045Z,94849.06
2019-04-06T13:01:48.188Z,94836.34
2019-04-06T13:04:35.988Z,94842.22
2019-04-06T13:07:43.196Z,94843.56
2019-04-06T13:10:51.534Z,94838.22
2019-04-06T13:13:39.118Z,94837.44
2019-04-06T13:16:26.725Z,94833.41
2019-04-06T13:19:14.366Z,94829.14
2019-04-06T13:27:26.719Z,94824.08
2019-04-06T13:30:14.289Z,94832.16
2019-04-06T13:33:01.888Z,94821.67
2019-04-06T13:35:49.415Z,94817.09
2019-04-06T13:38:36.974Z,94827.05
2019-04-06T13:41:24.502Z,94810.39
2019-04-06T13:44:12.057Z,94807.98
2019-04-06T13:49:48.718Z,94806.36
2019-04-06T13:55:46.329Z,94808.02
2019-04-06T14:01:25.085Z,94806.65
2019-04-06T14:04:14.341Z,94808.50
2019-04-06T14:07:01.911Z,94812.25
2019-04-06T14:09:49.451Z,94807.95
2019-04-06T14:12:37.098Z,94805.00
2019-04-06T14:15:45.505Z,94810.13
2019-04-06T14:18:33.090Z,94805.30
2019-04-06T14:21:20.999Z,94802.08
2019-04-06T14:26:47.392Z,94798.31
2019-04-06T14:29:42.591Z,94806.63
2019-04-06T14:32:30.164Z,94796.69
2019-04-06T14:35:17.948Z,94801.80
2019-04-06T14:40:40.750Z,94787.82
2019-04-06T14:43:28.285Z,94789.70
2019-04-06T14:46:15.924Z,94798.31
2019-04-06T14:49:13.555Z,94796.95
2019-04-06T14:51:52.737Z,94796.70
2019-04-06T14:57:29.672Z,94795.08
2019-04-06T15:00:17.226Z,94798.28
2019-04-06T15:03:04.771Z,94791.84
2019-04-06T15:05:52.925Z,94802.33
2019-04-06T15:08:40.501Z,94799.91
2019-04-06T15:11:28.124Z,94803.95
2019-04-06T15:14:16.007Z,94806.38
2019-04-06T15:17:03.524Z,94805.28
2019-04-06T15:19:51.698Z,94801.55
2019-04-06T15:22:39.223Z,94799.95
2019-04-06T15:30:44.933Z,94801.30
2019-04-06T15:36:21.637Z,94796.98
2019-04-06T15:39:09.109Z,94800.20
2019-04-06T15:44:32.521Z,94803.41
2019-04-06T15:47:20.373Z,94796.44
2019-04-06T15:50:08.131Z,94792.66
2019-04-06T15:52:55.958Z,94794.27
2019-04-06T15:58:18.973Z,94792.66
2019-04-06T16:01:06.500Z,94789.97
2019-04-06T16:03:54.392Z,94789.41
2019-04-06T16:06:42.168Z,94793.67
2019-04-06T16:12:08.743Z,94801.63
2019-04-06T16:14:56.284Z,94802.37
2019-04-06T16:17:43.915Z,94795.86
2019-04-06T16:20:31.571Z,94796.62
2019-04-06T16:23:19.274Z,94797.13
2019-04-06T16:26:06.739Z,94805.38
2019-04-06T16:28:54.425Z,94806.38
2019-04-06T16:31:41.952Z,94812.98
2019-04-06T16:34:30.021Z,94805.14
2019-04-06T16:37:17.531Z,94818.17
2019-04-06T16:40:05.077Z,94812.50
2019-04-06T16:42:52.608Z,94812.44
2019-04-06T16:45:40.167Z,94810.50
2019-04-06T16:48:27.792Z,94809.40
2019-04-06T16:51:15.396Z,94808.84
2019-04-06T16:54:02.996Z,94810.97
2019-04-06T16:56:50.662Z,94810.42
2019-04-06T16:59:38.264Z,94808.22
2019-04-06T17:02:26.141Z,94808.68
2019-04-06T17:08:10.714Z,94809.19
2019-04-06T17:10:52.159Z,94811.27
2019-04-06T17:13:39.751Z,94809.73
2019-04-06T17:16:27.272Z,94808.56
2019-04-06T17:19:14.921Z,94812.02
2019-04-06T17:22:02.443Z,94810.67
2019-04-06T17:24:50.290Z,94818.47
2019-04-06T17:33:02.755Z,94817.13
2019-04-06T17:35:50.302Z,94820.59
2019-04-06T17:38:37.878Z,94824.54
2019-04-06T17:41:25.413Z,94823.07
2019-04-06T17:44:12.986Z,94820.61
2019-04-06T17:47:00.513Z,94824.23
2019-04-06T17:49:48.465Z,94821.45
2019-04-06T17:52:35.938Z,94824.35
2019-04-06T17:55:44.598Z,94826.98
2019-04-06T17:58:33.584Z,94826.10
2019-04-06T18:01:21.153Z,94823.63
2019-04-06T18:04:08.751Z,94826.20
2019-04-06T18:06:56.637Z,94826.88
2019-04-06T18:09:44.097Z,94825.98
2019-04-06T18:14:48.754Z,94831.53
2019-04-06T18:17:18.165Z,94836.97
2019-04-06T18:19:47.065Z,94840.06
2019-04-06T18:24:51.494Z,94842.42
2019-04-06T18:27:21.595Z,94842.03
2019-04-06T18:29:51.360Z,94845.38
2019-04-06T18:32:38.913Z,94852.78
2019-04-06T18:35:27.185Z,94852.41
2019-04-06T18:40:35.980Z,94852.65
2019-04-06T18:43:06.261Z,94850.61
2019-04-06T18:45:35.879Z,94856.87
2019-04-06T18:48:04.299Z,94854.33
2019-04-06T18:50:36.532Z,94855.58
2019-04-06T18:53:02.818Z,94866.64
2019-04-06T18:58:24.498Z,94857.62
2019-04-06T19:00:52.932Z,94859.10
2019-04-06T19:03:21.334Z,94862.41
2019-04-06T19:06:08.956Z,94861.56
2019-04-06T19:08:37.592Z,94856.66
2019-04-06T19:11:07.483Z,94865.11
2019-04-06T19:13:36.380Z,94862.28
2019-04-06T19:16:06.156Z,94870.11
2019-04-06T19:18:35.069Z,94864.96
2019-04-06T19:21:44.669Z,94865.19
2019-04-06T19:24:13.805Z,94864.52
2019-04-06T19:26:43.434Z,94869.60
2019-04-06T19:29:54.180Z,94865.03
2019-04-06T19:32:23.945Z,94869.51
2019-04-06T19:34:52.859Z,94870.89
2019-04-06T19:39:56.836Z,94861.97
2019-04-06T19:45:00.488Z,94848.71
2019-04-06T19:47:48.390Z,94854.26
2019-04-06T19:50:37.546Z,94843.26
2019-04-06T19:56:01.076Z,94837.30
2019-04-06T19:58:29.472Z,94839.48
2019-04-06T20:01:17.589Z,94837.05
2019-04-06T20:04:05.246Z,94838.82
2019-04-06T20:09:47.612Z,94836.20
2019-04-06T20:12:16.043Z,94843.33
2019-04-06T20:14:44.480Z,94845.98
2019-04-06T20:17:13.257Z,94840.36
2019-04-06T20:22:16.918Z,94838.98
2019-04-06T20:27:18.975Z,94837.02
2019-04-06T20:29:47.368Z,94844.33
2019-04-06T20:35:02.183Z,94839.88
2019-04-06T20:40:44.675Z,94837.88
2019-04-06T20:43:33.526Z,94833.25
2019-04-06T20:46:01.935Z,94836.35
2019-04-06T20:48:30.363Z,94840.28
2019-04-06T20:50:58.764Z,94844.49
2019-04-06T20:53:27.642Z,94840.72
2019-04-06T20:55:57.497Z,94836.27
2019-04-06T21:01:21.149Z,94835.75
2019-04-06T21:03:59.823Z,94831.43
2019-04-06T21:06:59.939Z,94830.33
2019-04-06T21:12:03.719Z,94828.05
2019-04-06T21:14:32.572Z,94827.36
2019-04-06T21:17:02.545Z,94819.45
2019-04-06T21:19:32.445Z,94817.01
2019-04-06T21:24:34.331Z,94821.73
2019-04-06T21:27:23.953Z,94829.54
2019-04-06T21:29:54.375Z,94825.13
2019-04-06T21:32:24.097Z,94827.20
2019-04-06T21:34:52.544Z,94826.30
2019-04-06T21:37:21.152Z,94827.03
2019-04-06T21:39:51.063Z,94827.03
2019-04-06T21:42:19.818Z,94829.41
2019-04-06T21:44:50.293Z,94829.31
2019-04-06T21:47:19.785Z,94821.72
2019-04-06T21:50:08.130Z,94823.65
2019-04-06T21:52:38.691Z,94824.42
2019-04-06T21:55:48.323Z,94824.75
2019-04-06T21:58:17.907Z,94817.05
2019-04-06T22:03:36.419Z,94825.84
2019-04-06T22:06:45.447Z,94821.12
2019-04-06T22:11:49.362Z,94827.38
2019-04-06T22:14:17.781Z,94824.83
2019-04-06T22:17:06.302Z,94820.73
2019-04-06T22:19:36.292Z,94823.45
2019-04-06T22:22:44.722Z,94830.08
2019-04-06T22:25:32.439Z,94831.72
2019-04-06T22:35:49.822Z,94833.12
2019-04-06T22:38:18.243Z,94824.11
2019-04-06T22:40:46.645Z,94824.63
2019-04-06T22:43:15.032Z,94823.63
2019-04-06T22:45:43.784Z,94818.92
2019-04-06T22:48:13.727Z,94819.53
2019-04-06T22:50:42.158Z,94815.28
2019-04-06T22:55:44.591Z,94817.78
2019-04-06T23:01:07.864Z,94818.46
2019-04-06T23:03:56.126Z,94825.07
2019-04-06T23:06:43.598Z,94819.27
2019-04-06T23:12:06.476Z,94827.44
2019-04-06T23:14:36.758Z,94834.39
2019-04-06T23:17:06.464Z,94828.92
2019-04-06T23:22:09.326Z,94834.89
2019-04-06T23:25:17.678Z,94822.90
2019-04-06T23:27:46.076Z,94836.00
2019-04-06T23:30:33.946Z,94830.50
2019-04-06T23:33:03.952Z,94830.30
2019-04-06T23:35:32.333Z,94832.23
2019-04-06T23:40:35.218Z,94831.13
2019-04-06T23:43:04.086Z,94825.86
2019-04-06T23:45:34.370Z,94829.81
2019-04-06T23:48:04.405Z,94820.88
2019-04-06T23:50:34.593Z,94823.02
2019-04-06T23:53:04.273Z,94820.17
2019-04-06T23:55:32.762Z,94818.94
